Time;durP1;ratioP1;P1;durP2;ratioP2;P2;SDS_P1;SDS_P2;PMS_P1;PMS_P2;Temp;Humidity;BMP_temperature;BMP_pressure;BME280_temperature;BME280_humidity;BME280_pressure;Samples;Min_cycle;Max_cycle;Signal;HPM_P1;HPM_P2
2022/01/06 00:01:43;;;;;;;4.50;2.40;;;4.40;99.90;;;;;;5070685;28;20453;-73
2022/01/06 00:04:10;;;;;;;8.80;2.30;;;4.30;99.90;;;;;;5070590;28;20456;-73
2022/01/06 00:06:40;;;;;;;6.97;2.40;;;4.20;1.00;;;;;;5072534;28;20491;-73
2022/01/06 00:09:10;;;;;;;5.27;2.13;;;4.20;1.00;;;;;;5076947;28;20445;-73
2022/01/06 00:11:37;;;;;;;3.37;2.23;;;4.20;99.90;;;;;;5077336;28;20472;-73
2022/01/06 00:14:09;;;;;;;5.13;2.87;;;4.10;1.00;;;;;;5076727;28;21016;-72
2022/01/06 00:16:43;;;;;;;6.13;2.00;;;4.10;39.30;;;;;;5077850;28;20444;-73
2022/01/06 00:24:40;;;;;;;5.93;2.60;;;4.10;48.70;;;;;;5077442;28;20478;-73
2022/01/06 00:27:07;;;;;;;4.87;2.13;;;4.20;99.90;;;;;;5076675;28;20523;-72
2022/01/06 00:29:33;;;;;;;5.80;2.60;;;4.20;54.80;;;;;;5077587;28;20823;-72
2022/01/06 00:32:01;;;;;;;4.23;2.17;;;4.30;99.90;;;;;;5077193;28;20891;-73
2022/01/06 00:34:28;;;;;;;2.20;1.73;;;4.20;1.00;;;;;;5077734;28;20477;-73
2022/01/06 00:36:55;;;;;;;3.83;1.80;;;4.30;1.00;;;;;;5076990;28;21022;-72
2022/01/06 00:39:26;;;;;;;8.97;1.87;;;4.30;1.00;;;;;;5077046;28;20807;-73
2022/01/06 00:41:57;;;;;;;4.63;2.40;;;4.20;1.00;;;;;;5077043;28;20466;-73
2022/01/06 00:44:24;;;;;;;5.10;2.00;;;4.20;1.00;;;;;;5077311;28;20535;-73
2022/01/06 00:46:51;;;;;;;6.00;2.23;;;4.30;99.90;;;;;;5077350;28;20488;-73
2022/01/06 00:49:18;;;;;;;3.63;2.07;;;4.30;1.00;;;;;;5076898;28;20451;-73
2022/01/06 00:51:45;;;;;;;4.53;1.90;;;4.30;99.90;;;;;;5076244;28;20574;-73
2022/01/06 00:54:12;;;;;;;5.90;2.10;;;4.20;1.00;;;;;;5077033;28;20455;-73
2022/01/06 00:56:39;;;;;;;5.27;2.20;;;4.20;1.00;;;;;;5077275;28;20455;-73
2022/01/06 00:59:07;;;;;;;5.97;3.17;;;4.20;1.00;;;;;;5076864;28;20802;-73
2022/01/06 01:01:34;;;;;;;5.13;2.00;;;4.20;99.90;;;;;;5076777;28;20445;-73
2022/01/06 01:04:01;;;;;;;3.93;2.30;;;4.10;26.30;;;;;;5077577;28;20536;-73
2022/01/06 01:06:28;;;;;;;6.30;2.53;;;4.00;99.90;;;;;;5077227;28;20518;-74
2022/01/06 01:08:55;;;;;;;2.83;2.00;;;4.00;99.90;;;;;;5077268;28;20442;-73
2022/01/06 01:11:22;;;;;;;7.60;2.50;;;4.00;99.90;;;;;;5076504;28;20450;-72
2022/01/06 01:13:56;;;;;;;4.30;2.10;;;4.00;99.90;;;;;;5076465;28;20461;-72
2022/01/06 01:16:29;;;;;;;3.40;2.33;;;4.00;99.90;;;;;;5064063;28;20447;-73
2022/01/06 01:18:57;;;;;;;5.67;2.40;;;4.10;46.00;;;;;;5074281;28;20476;-73
2022/01/06 01:21:27;;;;;;;6.10;2.00;;;4.20;99.90;;;;;;5073096;28;20511;-73
2022/01/06 01:23:55;;;;;;;7.67;3.33;;;4.30;1.00;;;;;;5073891;28;20450;-73
2022/01/06 01:26:22;;;;;;;4.40;2.33;;;4.20;1.00;;;;;;5073004;28;20819;-73
2022/01/06 01:28:50;;;;;;;6.30;2.20;;;4.30;1.00;;;;;;5073748;28;20464;-73
2022/01/06 01:31:25;;;;;;;2.80;1.73;;;4.30;99.90;;;;;;5073153;28;20492;-73
2022/01/06 01:33:57;;;;;;;4.57;2.60;;;4.30;99.90;;;;;;5073753;28;20939;-73
2022/01/06 01:36:24;;;;;;;7.77;2.53;;;4.20;99.90;;;;;;5073037;28;20460;-73
2022/01/06 01:38:51;;;;;;;3.73;1.80;;;4.20;99.90;;;;;;5073713;28;20450;-73
2022/01/06 01:41:19;;;;;;;5.20;2.80;;;4.30;1.00;;;;;;5073118;28;20814;-73
2022/01/06 01:43:47;;;;;;;11.63;2.90;;;4.30;91.60;;;;;;5072735;28;20547;-71
2022/01/06 01:46:17;;;;;;;5.40;2.20;;;4.30;99.90;;;;;;5072692;28;20840;-71
2022/01/06 01:48:49;;;;;;;4.60;2.80;;;4.30;1.00;;;;;;5073080;28;20453;-71
2022/01/06 01:51:17;;;;;;;4.20;2.00;;;4.40;99.90;;;;;;5072550;28;20459;-74
2022/01/06 01:53:44;;;;;;;3.40;2.27;;;4.40;1.00;;;;;;5073139;28;20440;-71
2022/01/06 01:56:13;;;;;;;7.60;2.70;;;4.20;1.00;;;;;;5072364;28;20448;-71
2022/01/06 01:58:40;;;;;;;8.07;2.90;;;4.30;25.20;;;;;;5073359;28;20446;-71
2022/01/06 02:01:07;;;;;;;8.70;2.87;;;4.40;1.00;;;;;;5072557;28;20528;-71
2022/01/06 02:03:35;;;;;;;7.97;2.50;;;4.20;73.10;;;;;;5072362;28;20966;-72
2022/01/06 02:06:02;;;;;;;3.70;2.20;;;4.20;1.00;;;;;;5072894;28;20492;-70
2022/01/06 02:08:31;;;;;;;2.80;2.20;;;4.20;1.00;;;;;;5072807;28;20460;-71
2022/01/06 02:10:58;;;;;;;3.20;1.50;;;4.00;1.00;;;;;;5073062;28;20455;-71
2022/01/06 02:13:28;;;;;;;5.90;2.80;;;4.00;1.00;;;;;;5072153;28;20523;-71
2022/01/06 02:15:56;;;;;;;6.30;2.40;;;4.30;99.90;;;;;;5072587;28;20962;-72
2022/01/06 02:18:23;;;;;;;6.33;3.00;;;4.20;16.70;;;;;;5072112;28;20453;-71
2022/01/06 02:20:51;;;;;;;3.60;1.90;;;4.20;92.80;;;;;;5072405;28;20456;-71
2022/01/06 02:23:21;;;;;;;4.10;2.33;;;4.30;19.90;;;;;;5071784;28;20456;-71
2022/01/06 02:25:48;;;;;;;6.00;2.20;;;4.30;1.00;;;;;;5072234;28;20508;-71
2022/01/06 02:28:17;;;;;;;6.20;2.53;;;4.10;1.00;;;;;;5072185;28;20472;-71
2022/01/06 02:30:46;;;;;;;2.40;2.20;;;4.20;1.00;;;;;;5072653;28;20540;-71
2022/01/06 02:33:13;;;;;;;3.80;2.50;;;4.30;1.00;;;;;;5072168;28;20448;-71
2022/01/06 02:35:40;;;;;;;2.97;2.27;;;4.20;1.00;;;;;;5072225;28;20454;-72
2022/01/06 02:38:10;;;;;;;3.30;2.20;;;4.20;1.00;;;;;;5071980;28;20544;-71
2022/01/06 02:40:36;;;;;;;4.80;4.33;;;4.20;1.00;;;;;;5072375;28;20453;-71
2022/01/06 02:43:06;;;;;;;3.90;2.73;;;4.20;1.00;;;;;;5071433;28;20543;-73
2022/01/06 02:45:33;;;;;;;5.27;2.50;;;4.10;1.00;;;;;;5072334;28;20483;-71
2022/01/06 02:48:08;;;;;;;6.07;2.20;;;4.00;1.00;;;;;;5072043;28;20959;-73
2022/01/06 02:50:36;;;;;;;7.67;2.90;;;4.10;53.10;;;;;;5072216;28;20456;-71
2022/01/06 02:53:04;;;;;;;7.20;2.43;;;4.10;1.00;;;;;;5070560;28;20483;-70
2022/01/06 02:55:32;;;;;;;4.30;1.97;;;4.10;1.00;;;;;;5072442;28;20449;-71
2022/01/06 02:57:59;;;;;;;3.60;2.30;;;4.10;1.00;;;;;;5072228;28;20484;-71
2022/01/06 03:00:26;;;;;;;2.40;2.00;;;4.10;1.00;;;;;;5071562;28;20458;-71
2022/01/06 03:02:53;;;;;;;5.23;2.30;;;4.20;1.00;;;;;;5071191;28;20452;-71
2022/01/06 03:05:20;;;;;;;3.63;2.27;;;4.20;1.00;;;;;;5071249;28;20455;-71
2022/01/06 03:07:48;;;;;;;4.73;2.40;;;4.20;99.90;;;;;;5071679;28;20477;-71
2022/01/06 03:10:16;;;;;;;4.00;2.43;;;4.40;99.90;;;;;;5071125;28;20532;-71
2022/01/06 03:12:46;;;;;;;4.90;2.30;;;4.50;1.00;;;;;;5071383;28;20446;-71
2022/01/06 03:15:15;;;;;;;4.10;2.70;;;4.40;1.00;;;;;;5071368;28;20449;-70
2022/01/06 03:17:44;;;;;;;6.03;2.00;;;4.40;45.80;;;;;;5071460;28;20538;-71
2022/01/06 03:20:13;;;;;;;4.33;1.53;;;4.30;1.00;;;;;;5071187;28;20453;-71
2022/01/06 03:22:41;;;;;;;3.93;2.33;;;4.30;1.00;;;;;;5070644;28;20466;-71
2022/01/06 03:25:09;;;;;;;2.73;2.00;;;4.60;99.90;;;;;;5071151;28;20446;-71
2022/01/06 03:27:36;;;;;;;3.87;2.03;;;4.60;1.00;;;;;;5071607;28;20485;-71
2022/01/06 03:30:07;;;;;;;4.87;2.50;;;4.60;99.90;;;;;;5070525;28;20450;-73
2022/01/06 03:32:33;;;;;;;3.40;1.77;;;4.60;41.50;;;;;;5070992;28;20445;-73
2022/01/06 03:35:00;;;;;;;4.90;2.20;;;4.60;99.90;;;;;;5071295;28;20453;-73
2022/01/06 03:37:27;;;;;;;2.50;2.30;;;4.50;1.00;;;;;;5071498;28;20460;-73
2022/01/06 03:39:54;;;;;;;3.17;1.73;;;4.50;1.00;;;;;;5071568;28;20451;-73
2022/01/06 03:42:21;;;;;;;5.73;2.30;;;4.50;16.90;;;;;;5070057;28;20879;-73
2022/01/06 03:44:49;;;;;;;3.20;1.70;;;4.40;99.90;;;;;;5071444;28;20481;-73
2022/01/06 03:47:17;;;;;;;3.37;1.90;;;4.20;1.00;;;;;;5070576;28;20992;-73
2022/01/06 03:49:44;;;;;;;2.93;2.03;;;4.20;95.20;;;;;;5071026;28;20467;-73
2022/01/06 03:52:11;;;;;;;2.50;2.10;;;4.10;96.10;;;;;;5070226;28;20835;-73
2022/01/06 03:54:37;;;;;;;4.40;2.17;;;3.90;99.90;;;;;;5071178;28;20548;-73
2022/01/06 03:57:05;;;;;;;10.93;3.70;;;4.10;99.90;;;;;;5070680;28;20472;-72
2022/01/06 03:59:31;;;;;;;9.87;2.60;;;4.10;99.90;;;;;;5071241;28;20456;-73
2022/01/06 04:01:58;;;;;;;6.90;2.13;;;4.10;99.90;;;;;;5071013;28;20452;-73
2022/01/06 04:04:27;;;;;;;4.03;2.03;;;4.10;99.90;;;;;;5070281;28;20456;-73
2022/01/06 04:06:53;;;;;;;7.87;2.03;;;4.20;99.90;;;;;;5070731;28;20487;-73
2022/01/06 04:09:20;;;;;;;3.63;1.93;;;4.10;99.90;;;;;;5070479;28;20453;-73
2022/01/06 04:11:47;;;;;;;2.33;1.87;;;4.10;99.90;;;;;;5070775;28;20777;-73
2022/01/06 04:14:14;;;;;;;2.43;2.10;;;4.10;99.90;;;;;;5070520;28;20445;-73
2022/01/06 04:16:41;;;;;;;3.80;1.90;;;4.00;99.90;;;;;;5071090;28;20891;-73
2022/01/06 04:19:09;;;;;;;3.33;1.90;;;4.10;99.90;;;;;;5070283;28;20451;-73
2022/01/06 04:21:37;;;;;;;4.30;2.40;;;4.10;99.90;;;;;;5070586;28;20507;-73
2022/01/06 04:24:04;;;;;;;2.60;2.00;;;4.10;99.90;;;;;;5070452;28;20483;-72
2022/01/06 04:26:31;;;;;;;2.90;2.30;;;4.10;99.90;;;;;;5070670;28;20527;-72
2022/01/06 04:28:58;;;;;;;3.80;1.90;;;4.20;99.90;;;;;;5070685;28;20450;-72
2022/01/06 04:31:25;;;;;;;3.37;2.13;;;4.40;99.90;;;;;;5070056;28;20449;-72
2022/01/06 04:33:52;;;;;;;4.30;2.60;;;4.60;40.60;;;;;;5070800;28;20535;-72
2022/01/06 04:36:20;;;;;;;3.67;2.20;;;4.60;1.00;;;;;;5070413;28;20454;-72
2022/01/06 04:38:48;;;;;;;5.80;1.70;;;4.40;1.00;;;;;;5070441;28;20448;-72
2022/01/06 04:41:15;;;;;;;4.20;1.80;;;4.50;1.00;;;;;;5069895;28;20477;-72
2022/01/06 04:43:42;;;;;;;3.13;2.40;;;4.50;1.00;;;;;;5070446;28;20445;-73
2022/01/06 04:46:09;;;;;;;5.10;2.10;;;4.50;1.00;;;;;;5070340;28;20462;-72
2022/01/06 04:48:37;;;;;;;4.77;2.13;;;4.50;1.00;;;;;;5070337;28;20441;-72
2022/01/06 04:51:05;;;;;;;7.30;2.50;;;4.50;1.00;;;;;;5069676;28;20828;-71
2022/01/06 04:53:31;;;;;;;4.40;2.30;;;4.40;1.00;;;;;;5071246;28;20446;-72
2022/01/06 04:56:00;;;;;;;5.67;2.40;;;4.50;1.00;;;;;;5074480;28;20536;-71
2022/01/06 04:58:27;;;;;;;2.90;2.00;;;4.40;1.00;;;;;;5074546;28;20445;-72
2022/01/06 05:00:54;;;;;;;6.27;2.30;;;4.30;1.00;;;;;;5073942;28;20445;-72
2022/01/06 05:03:21;;;;;;;4.83;2.50;;;4.30;8.50;;;;;;5073470;28;20536;-72
2022/01/06 05:05:48;;;;;;;2.50;1.93;;;4.30;44.40;;;;;;5074106;28;20550;-72
2022/01/06 05:08:15;;;;;;;3.10;1.90;;;4.30;6.90;;;;;;5073206;28;20476;-72
2022/01/06 05:10:42;;;;;;;3.87;2.30;;;4.30;99.90;;;;;;5073769;28;20536;-72
2022/01/06 05:13:10;;;;;;;4.80;2.40;;;4.30;54.70;;;;;;5072760;28;20984;-72
2022/01/06 05:15:37;;;;;;;4.90;2.57;;;4.20;91.50;;;;;;5073760;28;20941;-72
2022/01/06 05:18:04;;;;;;;3.23;2.10;;;4.20;64.80;;;;;;5073493;28;20445;-72
2022/01/06 05:20:30;;;;;;;6.60;2.17;;;4.10;99.90;;;;;;5074088;28;20551;-72
2022/01/06 05:22:58;;;;;;;9.07;2.20;;;4.20;99.90;;;;;;5073207;28;20449;-72
2022/01/06 05:25:27;;;;;;;3.43;2.40;;;4.10;96.50;;;;;;5073305;28;20507;-72
2022/01/06 05:27:55;;;;;;;2.93;2.43;;;4.10;99.90;;;;;;5073386;28;21008;-72
2022/01/06 05:30:24;;;;;;;3.50;2.30;;;4.20;99.90;;;;;;5072897;28;20808;-72
2022/01/06 05:32:51;;;;;;;4.20;2.47;;;4.20;99.90;;;;;;5073366;28;20448;-72
2022/01/06 05:35:18;;;;;;;3.60;1.87;;;4.20;62.80;;;;;;5073021;28;20549;-72
2022/01/06 05:37:45;;;;;;;5.07;2.57;;;4.30;32.90;;;;;;5073231;28;20540;-72
2022/01/06 05:40:13;;;;;;;7.03;2.10;;;4.30;18.90;;;;;;5073174;28;20448;-72
2022/01/06 05:42:41;;;;;;;3.20;2.60;;;4.20;99.90;;;;;;5073177;28;20452;-72
2022/01/06 05:45:09;;;;;;;3.70;2.40;;;4.30;89.70;;;;;;5072538;28;20445;-80
2022/01/06 05:47:37;;;;;;;5.40;2.60;;;4.10;95.90;;;;;;5072526;28;20607;-73
2022/01/06 05:50:05;;;;;;;5.03;3.00;;;4.20;99.90;;;;;;5072481;28;20475;-74
2022/01/06 05:52:32;;;;;;;3.57;2.33;;;4.20;99.90;;;;;;5071831;28;21019;-72
2022/01/06 05:54:59;;;;;;;3.43;2.30;;;4.30;99.90;;;;;;5073198;28;20943;-73
2022/01/06 05:57:27;;;;;;;5.63;2.27;;;4.40;1.00;;;;;;5072809;28;20461;-73
2022/01/06 05:59:54;;;;;;;4.07;1.90;;;4.30;1.00;;;;;;5067088;28;20460;-75
2022/01/06 06:02:21;;;;;;;3.60;2.43;;;4.30;1.00;;;;;;5071641;28;20434;-74
2022/01/06 06:04:49;;;;;;;4.93;2.00;;;4.30;1.00;;;;;;5072408;28;20445;-71
2022/01/06 06:07:17;;;;;;;2.43;2.13;;;4.20;1.00;;;;;;5071517;28;20563;-73
2022/01/06 06:09:44;;;;;;;4.03;2.27;;;4.20;17.90;;;;;;5067075;28;20455;-72
2022/01/06 06:12:11;;;;;;;3.47;2.20;;;4.20;99.90;;;;;;5071620;28;20446;-72
2022/01/06 06:14:38;;;;;;;2.70;2.10;;;4.10;92.90;;;;;;5073009;28;20464;-72
2022/01/06 06:17:05;;;;;;;2.23;1.83;;;4.20;99.90;;;;;;5071876;28;20950;-72
2022/01/06 06:19:32;;;;;;;5.27;2.90;;;4.20;99.90;;;;;;5072837;28;20444;-72
2022/01/06 06:22:00;;;;;;;7.30;3.27;;;4.10;99.90;;;;;;5071921;28;20462;-72
2022/01/06 06:24:27;;;;;;;4.23;2.20;;;4.20;99.90;;;;;;5071381;28;20476;-72
2022/01/06 06:26:54;;;;;;;3.40;2.07;;;4.20;99.90;;;;;;5072397;28;20449;-72
2022/01/06 06:29:21;;;;;;;2.43;2.03;;;4.10;99.90;;;;;;5071556;28;20548;-72
2022/01/06 06:31:48;;;;;;;5.17;2.53;;;4.00;99.90;;;;;;5072140;28;20453;-73
2022/01/06 06:34:15;;;;;;;4.80;2.53;;;4.10;99.90;;;;;;5072169;28;20481;-72
2022/01/06 06:36:42;;;;;;;2.93;2.00;;;4.10;99.90;;;;;;5072393;28;20450;-72
2022/01/06 06:39:10;;;;;;;3.87;2.13;;;4.10;99.90;;;;;;5071575;28;20536;-73
2022/01/06 06:41:37;;;;;;;4.20;2.00;;;4.10;99.90;;;;;;5071594;28;20451;-73
2022/01/06 06:44:04;;;;;;;3.00;2.70;;;4.10;99.90;;;;;;5071737;28;20821;-72
2022/01/06 06:46:31;;;;;;;3.57;2.53;;;4.20;99.90;;;;;;5072276;28;20449;-73
2022/01/06 06:48:58;;;;;;;3.40;2.20;;;4.20;99.90;;;;;;5071928;28;20568;-72
2022/01/06 06:51:25;;;;;;;2.53;1.63;;;4.20;99.90;;;;;;5070425;28;20977;-73
2022/01/06 06:53:52;;;;;;;4.10;2.47;;;4.20;99.90;;;;;;5071755;28;20479;-72
2022/01/06 06:56:20;;;;;;;6.10;2.13;;;4.20;99.90;;;;;;5071606;28;20552;-72
2022/01/06 06:58:47;;;;;;;3.83;2.20;;;4.20;99.90;;;;;;5071568;28;20525;-72
2022/01/06 07:01:15;;;;;;;7.13;2.27;;;4.20;99.90;;;;;;5070268;28;20965;-72
2022/01/06 07:03:42;;;;;;;4.80;3.00;;;4.20;99.90;;;;;;5071478;28;20532;-72
2022/01/06 07:06:08;;;;;;;3.40;2.00;;;4.30;99.90;;;;;;5071340;28;20465;-72
2022/01/06 07:08:35;;;;;;;9.40;2.57;;;4.20;99.90;;;;;;5071539;28;20483;-73
2022/01/06 07:11:02;;;;;;;4.53;2.37;;;4.10;99.90;;;;;;5070046;28;20449;-72
2022/01/06 07:13:30;;;;;;;4.20;2.00;;;4.10;99.90;;;;;;5071857;28;20799;-72
2022/01/06 07:15:57;;;;;;;2.73;2.20;;;4.20;99.90;;;;;;5071348;28;20774;-73
2022/01/06 07:18:24;;;;;;;9.73;2.50;;;4.10;99.90;;;;;;5070358;28;20452;-73
2022/01/06 07:20:51;;;;;;;3.30;1.87;;;4.20;99.90;;;;;;5070507;28;20459;-72
2022/01/06 07:23:18;;;;;;;3.20;2.07;;;4.20;99.90;;;;;;5070794;28;20446;-73
2022/01/06 07:25:45;;;;;;;3.53;2.03;;;4.20;99.90;;;;;;5071384;28;20465;-73
2022/01/06 07:28:12;;;;;;;4.70;2.53;;;4.30;1.00;;;;;;5070632;28;20481;-74
2022/01/06 07:30:40;;;;;;;9.50;2.90;;;4.40;1.00;;;;;;5070970;28;20540;-74
2022/01/06 07:33:07;;;;;;;4.57;2.53;;;4.30;1.00;;;;;;5069913;28;20525;-73
2022/01/06 07:35:34;;;;;;;7.80;3.23;;;4.20;1.00;;;;;;5071129;28;20445;-73
2022/01/06 07:38:00;;;;;;;4.13;2.20;;;4.30;1.00;;;;;;5071117;28;20456;-74
2022/01/06 07:40:27;;;;;;;5.07;2.73;;;4.30;99.90;;;;;;5070685;28;20974;-73
2022/01/06 07:42:54;;;;;;;5.07;2.10;;;4.30;1.00;;;;;;5081230;28;20451;-73
2022/01/06 07:45:21;;;;;;;9.77;2.47;;;4.30;1.00;;;;;;5075413;28;20543;-73
2022/01/06 07:47:57;;;;;;;4.00;2.40;;;4.30;1.00;;;;;;5071219;28;20559;-73
2022/01/06 07:50:26;;;;;;;4.00;1.93;;;4.20;1.00;;;;;;5060923;28;20468;-73
2022/01/06 07:52:53;;;;;;;3.47;2.20;;;4.20;1.00;;;;;;5070451;28;20473;-73
2022/01/06 07:55:20;;;;;;;4.10;2.10;;;4.20;1.00;;;;;;5070443;28;20928;-72
2022/01/06 07:57:47;;;;;;;4.00;2.10;;;4.20;1.00;;;;;;5070413;28;20453;-73
2022/01/06 08:00:15;;;;;;;2.63;1.97;;;4.10;1.00;;;;;;5069718;28;20542;-72
2022/01/06 08:02:42;;;;;;;4.43;2.00;;;4.10;1.00;;;;;;5069575;28;20441;-72
2022/01/06 08:05:12;;;;;;;8.77;3.70;;;4.10;1.00;;;;;;5070322;28;20454;-73
2022/01/06 08:07:39;;;;;;;3.70;2.00;;;4.10;1.00;;;;;;5070994;28;20476;-73
2022/01/06 08:10:08;;;;;;;3.93;2.33;;;4.00;1.00;;;;;;5070341;28;20451;-73
2022/01/06 08:12:35;;;;;;;4.33;2.20;;;3.90;99.90;;;;;;5070240;28;20520;-73
2022/01/06 08:15:02;;;;;;;4.00;3.03;;;3.90;99.90;;;;;;5070610;28;20452;-70
2022/01/06 08:17:29;;;;;;;3.83;2.20;;;3.90;1.00;;;;;;5070823;28;20828;-72
2022/01/06 08:19:56;;;;;;;16.67;2.80;;;3.90;99.90;;;;;;5070546;28;20959;-73
2022/01/06 08:22:24;;;;;;;6.37;2.67;;;3.90;99.90;;;;;;5069597;28;20547;-73
2022/01/06 08:24:53;;;;;;;3.40;2.70;;;3.80;1.00;;;;;;5070957;28;20445;-72
2022/01/06 08:27:23;;;;;;;5.97;3.57;;;3.70;1.00;;;;;;5069868;28;20448;-72
2022/01/06 08:29:50;;;;;;;8.57;3.17;;;3.70;1.00;;;;;;5065506;28;20476;-73
2022/01/06 08:32:17;;;;;;;3.87;2.67;;;3.70;1.00;;;;;;5073863;28;20855;-73
2022/01/06 08:34:44;;;;;;;7.73;3.07;;;3.90;1.00;;;;;;5074330;28;20937;-73
2022/01/06 08:37:11;;;;;;;5.60;3.00;;;3.90;99.90;;;;;;5074034;28;20451;-73
2022/01/06 08:39:39;;;;;;;11.63;2.87;;;3.80;99.90;;;;;;5074405;28;20874;-73
2022/01/06 08:42:06;;;;;;;3.50;2.43;;;3.80;99.90;;;;;;5073165;28;20540;-73
2022/01/06 08:44:33;;;;;;;8.07;2.60;;;3.90;99.90;;;;;;5074683;28;20501;-73
2022/01/06 08:47:01;;;;;;;5.87;2.83;;;3.90;99.90;;;;;;5073920;28;20545;-73
2022/01/06 08:49:28;;;;;;;6.13;2.30;;;3.90;99.90;;;;;;5074073;28;20560;-73
2022/01/06 08:51:55;;;;;;;3.13;2.50;;;3.80;99.90;;;;;;5073081;28;20562;-73
2022/01/06 08:54:22;;;;;;;4.10;2.27;;;3.90;99.90;;;;;;5073411;28;20457;-73
2022/01/06 08:56:50;;;;;;;6.50;2.93;;;3.90;99.90;;;;;;5073807;28;20449;-72
2022/01/06 08:59:17;;;;;;;7.57;3.40;;;3.80;99.90;;;;;;5073595;28;20449;-73
2022/01/06 09:01:44;;;;;;;4.50;2.30;;;3.90;99.90;;;;;;5073676;28;20453;-73
2022/01/06 09:04:11;;;;;;;9.40;3.10;;;4.00;99.90;;;;;;5073540;28;20544;-73
2022/01/06 09:06:38;;;;;;;10.70;2.90;;;4.10;1.00;;;;;;5074234;28;20445;-72
2022/01/06 09:09:05;;;;;;;5.43;2.13;;;4.10;1.00;;;;;;5073255;28;20491;-73
2022/01/06 09:11:31;;;;;;;7.90;3.37;;;4.10;99.90;;;;;;5073987;28;20453;-73
2022/01/06 09:14:00;;;;;;;11.70;2.57;;;4.10;1.00;;;;;;5074021;28;20889;-73
2022/01/06 09:16:27;;;;;;;7.10;3.30;;;4.20;1.00;;;;;;5079015;28;20468;-73
2022/01/06 09:18:53;;;;;;;7.77;2.50;;;4.40;99.90;;;;;;5089326;28;20545;-74
2022/01/06 09:21:22;;;;;;;6.47;2.87;;;4.30;1.00;;;;;;5087880;28;20475;-72
2022/01/06 09:23:50;;;;;;;5.47;3.13;;;4.30;99.90;;;;;;5078838;28;20459;-72
2022/01/06 09:26:17;;;;;;;3.97;2.80;;;4.30;1.00;;;;;;5074379;28;20445;-73
2022/01/06 09:28:44;;;;;;;4.60;2.93;;;4.30;99.90;;;;;;5073606;28;21008;-73
2022/01/06 09:31:12;;;;;;;8.80;3.03;;;4.40;1.00;;;;;;5072684;28;21017;-73
2022/01/06 09:33:39;;;;;;;5.87;2.50;;;4.40;1.00;;;;;;5073687;28;20464;-72
2022/01/06 09:36:06;;;;;;;3.53;2.13;;;4.50;1.00;;;;;;5072841;28;20460;-72
2022/01/06 09:38:33;;;;;;;3.97;2.83;;;4.50;99.90;;;;;;5072876;28;21478;-73
2022/01/06 09:41:03;;;;;;;2.60;2.30;;;;;;;;;;5072516;28;20821;-73
2022/01/06 09:43:32;;;;;;;7.27;2.53;;;;;;;;;;5073798;28;20519;-73
2022/01/06 09:46:02;;;;;;;2.87;1.70;;;;;;;;;;5072945;28;20456;-73
2022/01/06 09:48:31;;;;;;;6.10;2.00;;;;;;;;;;5073381;28;20473;-73
2022/01/06 09:50:58;;;;;;;2.70;2.37;;;;;;;;;;5072761;28;20461;-73
2022/01/06 09:53:27;;;;;;;4.20;2.00;;;;;;;;;;5070920;28;20555;-73
2022/01/06 09:55:54;;;;;;;4.73;2.17;;;;;;;;;;5073142;28;20437;-73
2022/01/06 09:58:23;;;;;;;3.90;1.80;;;;;;;;;;5072131;28;20449;-72
2022/01/06 10:00:51;;;;;;;4.10;2.50;;;;;;;;;;5072864;28;20450;-72
2022/01/06 10:03:18;;;;;;;3.13;2.00;;;;;;;;;;5072470;28;20445;-73
2022/01/06 10:05:49;;;;;;;3.50;1.73;;;;;;;;;;5072774;28;20533;-74
2022/01/06 10:08:27;;;;;;;3.10;1.93;;;;;;;;;;5072637;28;20476;-73
2022/01/06 10:10:54;;;;;;;3.37;2.13;;;;;;;;;;5071803;28;20456;-73
2022/01/06 10:13:21;;;;;;;4.17;2.37;;;;;;;;;;5072275;28;20529;-73
2022/01/06 10:15:48;;;;;;;3.53;2.90;;;;;;;;;;5072490;28;20820;-74
2022/01/06 10:18:17;;;;;;;3.43;2.33;;;;;;;;;;5072225;28;20469;-74
2022/01/06 10:20:45;;;;;;;3.23;2.40;;;;;;;;;;5072289;28;20457;-74
2022/01/06 10:23:15;;;;;;;5.00;2.40;;;;;;;;;;5072014;28;20494;-74
2022/01/06 10:25:48;;;;;;;7.10;3.40;;;;;;;;;;5072041;28;20451;-74
2022/01/06 10:28:16;;;;;;;6.10;3.00;;;;;;;;;;5064144;28;20496;-77
2022/01/06 10:30:48;;;;;;;4.83;2.53;;;;;;;;;;5072099;28;20999;-77
2022/01/06 10:33:16;;;;;;;6.77;2.77;;;;;;;;;;5072162;28;20450;-75
2022/01/06 10:35:43;;;;;;;9.40;2.37;;;;;;;;;;5071598;28;20445;-75
2022/01/06 10:38:11;;;;;;;4.73;2.40;;;;;;;;;;5071766;28;20538;-75
2022/01/06 10:40:39;;;;;;;7.30;2.97;;;;;;;;;;5058872;28;20881;-75
2022/01/06 10:43:07;;;;;;;7.70;2.80;;;;;;;;;;5071898;28;20534;-75
2022/01/06 10:45:34;;;;;;;5.27;2.23;;;;;;;;;;5076606;28;20444;-74
2022/01/06 10:48:03;;;;;;;3.67;1.73;;;;;;;;;;5072058;28;20456;-75
2022/01/06 10:50:31;;;;;;;4.93;2.20;;;;;;;;;;5072145;28;20493;-74
2022/01/06 10:53:00;;;;;;;12.00;4.93;;;;;;;;;;5071624;28;20481;-75
2022/01/06 10:55:28;;;;;;;5.07;2.10;;;;;;;;;;5072060;28;20441;-75
2022/01/06 10:57:58;;;;;;;5.23;2.07;;;;;;;;;;5070965;28;20446;-75
2022/01/06 11:00:26;;;;;;;6.90;2.10;;;;;;;;;;5070786;28;20926;-75
2022/01/06 11:02:54;;;;;;;7.50;2.30;;;;;;;;;;5070920;28;20528;-72
2022/01/06 11:05:21;;;;;;;2.50;1.83;;;;;;;;;;5071335;28;20477;-75
2022/01/06 11:07:48;;;;;;;10.57;2.00;;;;;;;;;;5071913;28;20524;-72
2022/01/06 11:10:20;;;;;;;9.40;2.57;;;4.50;1.00;;;;;;5071514;28;20477;-72
2022/01/06 11:12:46;;;;;;;9.77;2.43;;;5.80;1.00;;;;;;5071426;28;20429;-73
2022/01/06 11:15:15;;;;;;;8.87;2.20;;;6.00;1.00;;;;;;5071304;28;20498;-73
2022/01/06 11:17:47;;;;;;;7.00;2.50;;;6.00;99.90;;;;;;5071752;28;20437;-72
2022/01/06 11:20:14;;;;;;;3.80;2.60;;;5.90;99.90;;;;;;5071444;28;20441;-75
2022/01/06 11:22:49;;;;;;;7.30;2.90;;;5.60;99.90;;;;;;5071435;28;20433;-74
2022/01/06 11:25:16;;;;;;;6.13;2.27;;;5.70;1.00;;;;;;5071013;28;20803;-78
2022/01/06 11:27:43;;;;;;;5.40;2.50;;;5.70;99.90;;;;;;5070877;28;20528;-77
2022/01/06 11:30:14;;;;;;;3.80;2.03;;;5.60;99.90;;;;;;5070944;28;20475;-75
2022/01/06 11:32:42;;;;;;;4.70;2.33;;;5.40;99.90;;;;;;5070619;28;20794;-75
2022/01/06 11:35:12;;;;;;;5.80;2.33;;;5.30;99.90;;;;;;5070989;28;20448;-74
2022/01/06 11:37:41;;;;;;;4.73;2.27;;;5.40;99.90;;;;;;5071102;28;20484;-75
2022/01/06 11:40:09;;;;;;;2.90;2.20;;;5.40;99.90;;;;;;5070093;28;20543;-74
2022/01/06 11:42:36;;;;;;;5.23;1.70;;;5.40;99.90;;;;;;5070956;28;20536;-74
2022/01/06 11:45:05;;;;;;;2.70;1.73;;;5.50;99.90;;;;;;5070725;28;20463;-73
2022/01/06 11:47:35;;;;;;;3.90;2.40;;;5.60;99.90;;;;;;5071402;28;20813;-73
2022/01/06 11:50:25;;;;;;;9.47;2.33;;;5.80;99.90;;;;;;5070521;28;20505;-73
2022/01/06 11:52:53;;;;;;;3.90;1.63;;;5.80;99.90;;;;;;5071081;28;20583;-74
2022/01/06 11:55:22;;;;;;;3.37;1.50;;;5.90;99.90;;;;;;5070993;28;20524;-74
2022/01/06 11:57:49;;;;;;;7.40;2.40;;;6.10;99.90;;;;;;5071517;28;20495;-74
2022/01/06 12:00:22;;;;;;;3.57;1.80;;;6.20;98.70;;;;;;5075576;28;20453;-73
2022/01/06 12:03:01;;;;;;;6.07;2.10;;;6.30;72.40;;;;;;5082059;28;20453;-74
2022/01/06 12:05:40;;;;;;;4.00;2.03;;;6.40;50.90;;;;;;5086947;28;20467;-74
2022/01/06 12:08:07;;;;;;;4.77;1.57;;;6.40;9.20;;;;;;5077043;28;20532;-74
2022/01/06 12:10:40;;;;;;;4.43;1.93;;;6.50;1.00;;;;;;5072450;28;20484;-74
2022/01/06 12:13:06;;;;;;;5.03;2.13;;;6.30;1.00;;;;;;5071049;28;20457;-74
2022/01/06 12:15:33;;;;;;;1.33;1.23;;;6.20;1.00;;;;;;5070971;28;20536;-74
2022/01/06 12:18:02;;;;;;;5.10;1.90;;;6.00;1.00;;;;;;5071424;28;20532;-75
2022/01/06 12:20:30;;;;;;;7.17;2.10;;;5.90;1.00;;;;;;5070628;28;20450;-74
2022/01/06 12:22:57;;;;;;;5.30;2.30;;;6.00;1.00;;;;;;5070986;28;20442;-74
2022/01/06 12:25:25;;;;;;;2.90;2.03;;;6.00;1.00;;;;;;5069909;28;20948;-73
2022/01/06 12:27:54;;;;;;;6.70;1.97;;;6.00;1.00;;;;;;5071053;28;20445;-74
2022/01/06 12:30:22;;;;;;;11.13;2.37;;;6.00;1.00;;;;;;5069622;28;21072;-73
2022/01/06 12:32:59;;;;;;;4.70;1.80;;;5.70;1.00;;;;;;5070686;28;20449;-74
2022/01/06 12:35:42;;;;;;;6.40;2.53;;;5.60;1.00;;;;;;5070440;28;20798;-74
2022/01/06 12:38:10;;;;;;;2.43;1.27;;;5.40;1.00;;;;;;5070512;28;20450;-74
2022/01/06 12:40:39;;;;;;;4.67;1.87;;;5.40;7.20;;;;;;5070657;28;20460;-73
2022/01/06 12:43:18;;;;;;;4.27;2.13;;;5.40;1.00;;;;;;5070460;28;20445;-73
2022/01/06 12:45:45;;;;;;;7.30;2.23;;;5.40;1.00;;;;;;5071007;28;20445;-74
2022/01/06 12:48:14;;;;;;;3.77;1.70;;;5.30;1.00;;;;;;5069953;28;20480;-73
2022/01/06 12:50:49;;;;;;;4.40;2.03;;;5.40;1.00;;;;;;5070410;28;20497;-73
2022/01/06 12:53:27;;;;;;;4.20;2.17;;;5.40;2.20;;;;;;5070479;28;20480;-74
2022/01/06 12:55:54;;;;;;;6.33;2.00;;;5.50;1.00;;;;;;5070818;28;20456;-74
2022/01/06 12:58:25;;;;;;;11.30;2.47;;;5.50;1.00;;;;;;5070226;28;20441;-73
2022/01/06 13:00:57;;;;;;;5.03;2.60;;;5.40;27.80;;;;;;5070498;28;20476;-74
2022/01/06 13:03:31;;;;;;;4.90;1.97;;;5.40;24.50;;;;;;5069699;28;20533;-74
2022/01/06 13:06:01;;;;;;;7.70;2.30;;;5.50;1.00;;;;;;5070861;28;20477;-73
2022/01/06 13:08:30;;;;;;;2.40;1.50;;;5.40;1.00;;;;;;5071029;28;20448;-73
2022/01/06 13:11:07;;;;;;;3.50;1.43;;;5.30;1.00;;;;;;5070034;28;21044;-75
2022/01/06 13:13:52;;;;;;;6.03;1.70;;;5.10;6.90;;;;;;5070606;28;20532;-73
2022/01/06 13:16:21;;;;;;;5.50;1.87;;;5.10;91.60;;;;;;5072563;28;20520;-72
2022/01/06 13:18:53;;;;;;;10.50;2.10;;;5.30;15.80;;;;;;5073253;28;20446;-74
2022/01/06 13:21:28;;;;;;;15.00;6.27;;;5.30;1.00;;;;;;5072493;28;20551;-73
2022/01/06 13:23:55;;;;;;;7.60;2.30;;;5.30;1.00;;;;;;5073599;28;20449;-75